sensor_id;sensor_type;location;lat;lon;timestamp;temperature;humidity
38333;DHT22;25748;46.670;14.272;2023-02-07T00:01:12;-6.20;48.80
38333;DHT22;25748;46.670;14.272;2023-02-07T00:03:39;-6.20;49.00
38333;DHT22;25748;46.670;14.272;2023-02-07T00:06:10;-6.30;49.00
38333;DHT22;25748;46.670;14.272;2023-02-07T00:08:37;-6.30;49.00
38333;DHT22;25748;46.670;14.272;2023-02-07T00:11:07;-6.30;49.00
38333;DHT22;25748;46.670;14.272;2023-02-07T00:13:33;-6.30;48.80
38333;DHT22;25748;46.670;14.272;2023-02-07T00:15:59;-6.40;48.70
38333;DHT22;25748;46.670;14.272;2023-02-07T00:18:25;-6.40;48.80
38333;DHT22;25748;46.670;14.272;2023-02-07T00:21:14;-6.50;48.90
38333;DHT22;25748;46.670;14.272;2023-02-07T00:23:41;-6.50;49.20
38333;DHT22;25748;46.670;14.272;2023-02-07T00:26:08;-6.60;49.30
38333;DHT22;25748;46.670;14.272;2023-02-07T00:28:34;-6.60;49.30
38333;DHT22;25748;46.670;14.272;2023-02-07T00:31:14;-6.60;49.30
38333;DHT22;25748;46.670;14.272;2023-02-07T00:33:41;-6.60;49.40
38333;DHT22;25748;46.670;14.272;2023-02-07T00:36:10;-6.70;49.20
38333;DHT22;25748;46.670;14.272;2023-02-07T00:38:36;-6.70;49.20
38333;DHT22;25748;46.670;14.272;2023-02-07T00:41:02;-6.70;49.20
38333;DHT22;25748;46.670;14.272;2023-02-07T00:43:29;-6.80;49.20
38333;DHT22;25748;46.670;14.272;2023-02-07T00:45:59;-6.80;49.30
38333;DHT22;25748;46.670;14.272;2023-02-07T00:48:26;-6.80;49.50
38333;DHT22;25748;46.670;14.272;2023-02-07T00:50:52;-6.80;49.30
38333;DHT22;25748;46.670;14.272;2023-02-07T00:53:17;-6.90;49.30
38333;DHT22;25748;46.670;14.272;2023-02-07T00:55:43;-6.90;49.60
38333;DHT22;25748;46.670;14.272;2023-02-07T00:58:09;-6.90;49.60
38333;DHT22;25748;46.670;14.272;2023-02-07T01:00:35;-6.90;49.50
38333;DHT22;25748;46.670;14.272;2023-02-07T01:03:00;-6.90;49.60
38333;DHT22;25748;46.670;14.272;2023-02-07T01:05:26;-7.00;49.40
38333;DHT22;25748;46.670;14.272;2023-02-07T01:07:51;-7.00;49.40
38333;DHT22;25748;46.670;14.272;2023-02-07T01:10:17;-7.10;49.30
38333;DHT22;25748;46.670;14.272;2023-02-07T01:12:43;-7.10;49.40
38333;DHT22;25748;46.670;14.272;2023-02-07T01:15:09;-7.10;49.40
38333;DHT22;25748;46.670;14.272;2023-02-07T01:17:34;-7.20;49.40
38333;DHT22;25748;46.670;14.272;2023-02-07T01:20:00;-7.20;49.40
38333;DHT22;25748;46.670;14.272;2023-02-07T01:22:26;-7.30;49.50
38333;DHT22;25748;46.670;14.272;2023-02-07T01:24:53;-7.30;49.60
38333;DHT22;25748;46.670;14.272;2023-02-07T01:27:20;-7.30;49.60
38333;DHT22;25748;46.670;14.272;2023-02-07T01:29:46;-7.30;49.60
38333;DHT22;25748;46.670;14.272;2023-02-07T01:32:11;-7.30;49.70
38333;DHT22;25748;46.670;14.272;2023-02-07T01:34:37;-7.40;49.70
38333;DHT22;25748;46.670;14.272;2023-02-07T01:37:03;-7.40;49.90
38333;DHT22;25748;46.670;14.272;2023-02-07T01:39:29;-7.40;50.00
38333;DHT22;25748;46.670;14.272;2023-02-07T01:41:54;-7.40;50.10
38333;DHT22;25748;46.670;14.272;2023-02-07T01:46:52;-7.50;50.40
38333;DHT22;25748;46.670;14.272;2023-02-07T01:49:27;-7.50;50.60
38333;DHT22;25748;46.670;14.272;2023-02-07T01:52:10;-7.50;50.60
38333;DHT22;25748;46.670;14.272;2023-02-07T01:54:37;-7.50;50.40
38333;DHT22;25748;46.670;14.272;2023-02-07T01:57:07;-7.60;50.30
38333;DHT22;25748;46.670;14.272;2023-02-07T01:59:35;-7.60;50.30
38333;DHT22;25748;46.670;14.272;2023-02-07T02:02:03;-7.70;50.20
38333;DHT22;25748;46.670;14.272;2023-02-07T02:04:30;-7.70;50.20
38333;DHT22;25748;46.670;14.272;2023-02-07T02:06:56;-7.70;50.10
38333;DHT22;25748;46.670;14.272;2023-02-07T02:09:22;-7.70;50.20
38333;DHT22;25748;46.670;14.272;2023-02-07T02:17:23;-7.90;50.30
38333;DHT22;25748;46.670;14.272;2023-02-07T02:20:24;-7.90;50.40
38333;DHT22;25748;46.670;14.272;2023-02-07T02:34:05;-8.00;50.30
38333;DHT22;25748;46.670;14.272;2023-02-07T02:43:20;-8.10;50.50
38333;DHT22;25748;46.670;14.272;2023-02-07T02:45:27;-8.10;50.60
38333;DHT22;25748;46.670;14.272;2023-02-07T02:47:55;-8.20;50.60
38333;DHT22;25748;46.670;14.272;2023-02-07T02:50:24;-8.20;50.70
38333;DHT22;25748;46.670;14.272;2023-02-07T02:52:51;-8.20;50.80
38333;DHT22;25748;46.670;14.272;2023-02-07T02:55:21;-8.30;50.80
38333;DHT22;25748;46.670;14.272;2023-02-07T02:58:24;-8.30;50.80
38333;DHT22;25748;46.670;14.272;2023-02-07T03:10:27;-8.40;50.90
38333;DHT22;25748;46.670;14.272;2023-02-07T03:12:50;-8.40;51.00
38333;DHT22;25748;46.670;14.272;2023-02-07T03:21:02;-8.40;51.40
38333;DHT22;25748;46.670;14.272;2023-02-07T03:23:31;-8.50;51.40
38333;DHT22;25748;46.670;14.272;2023-02-07T03:25:58;-8.50;51.60
38333;DHT22;25748;46.670;14.272;2023-02-07T03:28:25;-8.50;51.50
38333;DHT22;25748;46.670;14.272;2023-02-07T03:30:54;-8.50;51.40
38333;DHT22;25748;46.670;14.272;2023-02-07T03:33:22;-8.50;51.30
38333;DHT22;25748;46.670;14.272;2023-02-07T03:36:07;-8.60;51.00
38333;DHT22;25748;46.670;14.272;2023-02-07T03:38:35;-8.60;51.00
38333;DHT22;25748;46.670;14.272;2023-02-07T03:41:05;-8.60;51.00
38333;DHT22;25748;46.670;14.272;2023-02-07T03:43:33;-8.70;50.90
38333;DHT22;25748;46.670;14.272;2023-02-07T03:45:59;-8.70;50.90
38333;DHT22;25748;46.670;14.272;2023-02-07T03:48:25;-8.70;51.00
38333;DHT22;25748;46.670;14.272;2023-02-07T03:50:51;-8.70;51.10
38333;DHT22;25748;46.670;14.272;2023-02-07T03:53:18;-8.70;51.20
38333;DHT22;25748;46.670;14.272;2023-02-07T03:55:44;-8.70;51.30
38333;DHT22;25748;46.670;14.272;2023-02-07T03:58:10;-8.80;51.60
38333;DHT22;25748;46.670;14.272;2023-02-07T04:00:35;-8.80;51.50
38333;DHT22;25748;46.670;14.272;2023-02-07T04:03:02;-8.80;51.40
38333;DHT22;25748;46.670;14.272;2023-02-07T04:05:28;-8.80;51.20
38333;DHT22;25748;46.670;14.272;2023-02-07T04:07:53;-8.90;51.10
38333;DHT22;25748;46.670;14.272;2023-02-07T04:10:19;-8.90;51.10
38333;DHT22;25748;46.670;14.272;2023-02-07T04:12:45;-9.00;51.10
38333;DHT22;25748;46.670;14.272;2023-02-07T04:15:10;-9.00;51.20
38333;DHT22;25748;46.670;14.272;2023-02-07T04:17:36;-9.00;51.30
38333;DHT22;25748;46.670;14.272;2023-02-07T04:20:03;-9.00;51.30
38333;DHT22;25748;46.670;14.272;2023-02-07T04:22:29;-9.00;51.40
38333;DHT22;25748;46.670;14.272;2023-02-07T04:24:55;-9.00;51.40
38333;DHT22;25748;46.670;14.272;2023-02-07T04:27:21;-9.10;51.50
38333;DHT22;25748;46.670;14.272;2023-02-07T04:29:47;-9.10;51.50
38333;DHT22;25748;46.670;14.272;2023-02-07T04:32:13;-9.10;51.50
38333;DHT22;25748;46.670;14.272;2023-02-07T04:34:38;-9.10;51.50
38333;DHT22;25748;46.670;14.272;2023-02-07T04:37:04;-9.20;51.40
38333;DHT22;25748;46.670;14.272;2023-02-07T04:39:30;-9.20;51.40
38333;DHT22;25748;46.670;14.272;2023-02-07T04:41:56;-9.20;51.50
38333;DHT22;25748;46.670;14.272;2023-02-07T04:44:21;-9.20;51.50
38333;DHT22;25748;46.670;14.272;2023-02-07T04:46:47;-9.20;51.40
38333;DHT22;25748;46.670;14.272;2023-02-07T04:49:13;-9.20;51.40
38333;DHT22;25748;46.670;14.272;2023-02-07T04:51:38;-9.30;51.40
38333;DHT22;25748;46.670;14.272;2023-02-07T04:54:04;-9.30;51.40
38333;DHT22;25748;46.670;14.272;2023-02-07T04:56:30;-9.30;51.50
38333;DHT22;25748;46.670;14.272;2023-02-07T04:58:56;-9.30;51.50
38333;DHT22;25748;46.670;14.272;2023-02-07T05:01:22;-9.30;51.60
38333;DHT22;25748;46.670;14.272;2023-02-07T05:03:47;-9.30;51.60
38333;DHT22;25748;46.670;14.272;2023-02-07T05:06:13;-9.30;51.70
38333;DHT22;25748;46.670;14.272;2023-02-07T05:08:39;-9.30;51.70
38333;DHT22;25748;46.670;14.272;2023-02-07T05:11:05;-9.30;51.80
38333;DHT22;25748;46.670;14.272;2023-02-07T05:13:31;-9.30;51.80
38333;DHT22;25748;46.670;14.272;2023-02-07T05:15:57;-9.30;51.80
38333;DHT22;25748;46.670;14.272;2023-02-07T05:18:23;-9.30;51.80
38333;DHT22;25748;46.670;14.272;2023-02-07T05:20:49;-9.30;51.90
38333;DHT22;25748;46.670;14.272;2023-02-07T05:23:14;-9.30;51.90
38333;DHT22;25748;46.670;14.272;2023-02-07T05:25:41;-9.30;51.80
38333;DHT22;25748;46.670;14.272;2023-02-07T05:28:07;-9.30;51.60
38333;DHT22;25748;46.670;14.272;2023-02-07T05:30:33;-9.30;51.80
38333;DHT22;25748;46.670;14.272;2023-02-07T05:32:59;-9.30;51.80
38333;DHT22;25748;46.670;14.272;2023-02-07T05:35:37;-9.40;51.60
38333;DHT22;25748;46.670;14.272;2023-02-07T05:38:04;-9.40;51.60
38333;DHT22;25748;46.670;14.272;2023-02-07T05:40:32;-9.50;51.40
38333;DHT22;25748;46.670;14.272;2023-02-07T05:42:58;-9.50;51.50
38333;DHT22;25748;46.670;14.272;2023-02-07T05:45:24;-9.50;51.50
38333;DHT22;25748;46.670;14.272;2023-02-07T05:47:50;-9.50;51.50
38333;DHT22;25748;46.670;14.272;2023-02-07T05:50:16;-9.60;51.40
38333;DHT22;25748;46.670;14.272;2023-02-07T05:52:41;-9.60;51.40
38333;DHT22;25748;46.670;14.272;2023-02-07T05:55:08;-9.60;51.50
38333;DHT22;25748;46.670;14.272;2023-02-07T05:57:34;-9.60;51.50
38333;DHT22;25748;46.670;14.272;2023-02-07T05:59:59;-9.70;51.50
38333;DHT22;25748;46.670;14.272;2023-02-07T06:02:25;-9.70;51.60
38333;DHT22;25748;46.670;14.272;2023-02-07T06:04:51;-9.70;51.60
38333;DHT22;25748;46.670;14.272;2023-02-07T06:07:16;-9.70;51.60
38333;DHT22;25748;46.670;14.272;2023-02-07T06:09:42;-9.70;51.70
38333;DHT22;25748;46.670;14.272;2023-02-07T06:12:08;-9.70;51.80
38333;DHT22;25748;46.670;14.272;2023-02-07T06:14:34;-9.70;51.80
38333;DHT22;25748;46.670;14.272;2023-02-07T06:16:59;-9.70;51.80
38333;DHT22;25748;46.670;14.272;2023-02-07T06:19:25;-9.70;51.90
38333;DHT22;25748;46.670;14.272;2023-02-07T06:21:50;-9.70;51.90
38333;DHT22;25748;46.670;14.272;2023-02-07T06:24:16;-9.70;52.00
38333;DHT22;25748;46.670;14.272;2023-02-07T06:26:42;-9.70;52.00
38333;DHT22;25748;46.670;14.272;2023-02-07T06:29:08;-9.70;52.10
38333;DHT22;25748;46.670;14.272;2023-02-07T06:31:34;-9.70;52.10
38333;DHT22;25748;46.670;14.272;2023-02-07T06:34:00;-9.70;52.20
38333;DHT22;25748;46.670;14.272;2023-02-07T06:36:25;-9.70;52.20
38333;DHT22;25748;46.670;14.272;2023-02-07T06:38:51;-9.70;52.30
38333;DHT22;25748;46.670;14.272;2023-02-07T06:41:21;-9.70;52.20
38333;DHT22;25748;46.670;14.272;2023-02-07T06:43:46;-9.70;52.30
38333;DHT22;25748;46.670;14.272;2023-02-07T06:46:12;-9.60;52.30
38333;DHT22;25748;46.670;14.272;2023-02-07T06:48:38;-9.60;52.30
38333;DHT22;25748;46.670;14.272;2023-02-07T06:51:04;-9.60;52.40
38333;DHT22;25748;46.670;14.272;2023-02-07T06:53:29;-9.60;52.50
38333;DHT22;25748;46.670;14.272;2023-02-07T06:55:55;-9.60;52.50
38333;DHT22;25748;46.670;14.272;2023-02-07T06:58:21;-9.60;52.60
38333;DHT22;25748;46.670;14.272;2023-02-07T07:00:47;-9.50;52.70
38333;DHT22;25748;46.670;14.272;2023-02-07T07:03:13;-9.50;52.80
38333;DHT22;25748;46.670;14.272;2023-02-07T07:05:40;-9.40;53.00
38333;DHT22;25748;46.670;14.272;2023-02-07T07:08:07;-9.40;53.10
38333;DHT22;25748;46.670;14.272;2023-02-07T07:10:32;-9.30;53.20
38333;DHT22;25748;46.670;14.272;2023-02-07T07:12:58;-9.20;53.40
38333;DHT22;25748;46.670;14.272;2023-02-07T07:15:24;-9.10;53.50
38333;DHT22;25748;46.670;14.272;2023-02-07T07:17:50;-9.00;53.60
38333;DHT22;25748;46.670;14.272;2023-02-07T07:20:15;-8.90;53.60
38333;DHT22;25748;46.670;14.272;2023-02-07T07:22:41;-8.80;53.60
38333;DHT22;25748;46.670;14.272;2023-02-07T07:25:07;-8.80;53.90
38333;DHT22;25748;46.670;14.272;2023-02-07T07:27:33;-8.60;53.90
38333;DHT22;25748;46.670;14.272;2023-02-07T07:30:00;-8.50;53.80
38333;DHT22;25748;46.670;14.272;2023-02-07T07:32:26;-8.40;53.80
38333;DHT22;25748;46.670;14.272;2023-02-07T07:34:51;-8.30;53.80
38333;DHT22;25748;46.670;14.272;2023-02-07T07:37:19;-8.20;53.80
38333;DHT22;25748;46.670;14.272;2023-02-07T07:39:44;-8.10;53.80
38333;DHT22;25748;46.670;14.272;2023-02-07T07:42:10;-8.00;53.80
38333;DHT22;25748;46.670;14.272;2023-02-07T07:44:36;-7.80;53.80
38333;DHT22;25748;46.670;14.272;2023-02-07T07:47:02;-7.70;53.80
38333;DHT22;25748;46.670;14.272;2023-02-07T07:49:27;-7.50;53.90
38333;DHT22;25748;46.670;14.272;2023-02-07T07:51:53;-7.30;53.80
38333;DHT22;25748;46.670;14.272;2023-02-07T07:54:19;-7.10;53.70
38333;DHT22;25748;46.670;14.272;2023-02-07T07:56:44;-6.90;53.40
38333;DHT22;25748;46.670;14.272;2023-02-07T07:59:10;-6.80;52.90
38333;DHT22;25748;46.670;14.272;2023-02-07T08:01:36;-6.70;52.80
38333;DHT22;25748;46.670;14.272;2023-02-07T08:04:01;-6.60;52.30
38333;DHT22;25748;46.670;14.272;2023-02-07T08:06:28;-6.40;52.60
38333;DHT22;25748;46.670;14.272;2023-02-07T08:08:54;-6.20;52.60
38333;DHT22;25748;46.670;14.272;2023-02-07T08:11:21;-6.00;52.50
38333;DHT22;25748;46.670;14.272;2023-02-07T08:13:48;-5.90;52.20
38333;DHT22;25748;46.670;14.272;2023-02-07T08:16:14;-5.70;51.80
38333;DHT22;25748;46.670;14.272;2023-02-07T08:18:40;-5.70;51.10
38333;DHT22;25748;46.670;14.272;2023-02-07T08:21:06;-5.50;51.50
38333;DHT22;25748;46.670;14.272;2023-02-07T08:23:32;-5.40;50.90
38333;DHT22;25748;46.670;14.272;2023-02-07T08:25:58;-5.20;51.30
38333;DHT22;25748;46.670;14.272;2023-02-07T08:28:24;-5.00;51.20
38333;DHT22;25748;46.670;14.272;2023-02-07T08:30:50;-4.80;50.70
38333;DHT22;25748;46.670;14.272;2023-02-07T08:33:16;-4.70;50.10
38333;DHT22;25748;46.670;14.272;2023-02-07T08:35:42;-4.60;50.00
38333;DHT22;25748;46.670;14.272;2023-02-07T08:38:08;-4.40;49.90
38333;DHT22;25748;46.670;14.272;2023-02-07T08:40:34;-4.20;49.70
38333;DHT22;25748;46.670;14.272;2023-02-07T08:43:00;-4.00;49.60
38333;DHT22;25748;46.670;14.272;2023-02-07T08:45:26;-3.90;48.80
38333;DHT22;25748;46.670;14.272;2023-02-07T08:47:52;-3.70;48.50
38333;DHT22;25748;46.670;14.272;2023-02-07T08:50:18;-3.70;48.20
38333;DHT22;25748;46.670;14.272;2023-02-07T08:52:44;-3.60;47.60
38333;DHT22;25748;46.670;14.272;2023-02-07T08:55:11;-3.50;48.00
38333;DHT22;25748;46.670;14.272;2023-02-07T08:57:37;-3.30;48.30
38333;DHT22;25748;46.670;14.272;2023-02-07T09:00:04;-3.20;48.50
38333;DHT22;25748;46.670;14.272;2023-02-07T09:02:31;-3.00;48.20
38333;DHT22;25748;46.670;14.272;2023-02-07T09:04:57;-2.80;47.80
38333;DHT22;25748;46.670;14.272;2023-02-07T09:07:22;-2.60;47.90
38333;DHT22;25748;46.670;14.272;2023-02-07T09:09:48;-2.40;47.70
38333;DHT22;25748;46.670;14.272;2023-02-07T09:12:14;-2.30;46.90
38333;DHT22;25748;46.670;14.272;2023-02-07T09:14:39;-2.10;47.00
38333;DHT22;25748;46.670;14.272;2023-02-07T09:17:06;-2.00;46.60
38333;DHT22;25748;46.670;14.272;2023-02-07T09:19:32;-1.80;46.50
38333;DHT22;25748;46.670;14.272;2023-02-07T09:21:58;-1.70;46.30
38333;DHT22;25748;46.670;14.272;2023-02-07T09:24:24;-1.60;46.10
38333;DHT22;25748;46.670;14.272;2023-02-07T09:26:49;-1.50;45.80
38333;DHT22;25748;46.670;14.272;2023-02-07T09:29:15;-1.40;45.60
38333;DHT22;25748;46.670;14.272;2023-02-07T09:31:42;-1.20;45.80
38333;DHT22;25748;46.670;14.272;2023-02-07T09:34:08;-1.10;45.60
38333;DHT22;25748;46.670;14.272;2023-02-07T09:36:34;-0.90;45.20
38333;DHT22;25748;46.670;14.272;2023-02-07T09:39:00;-0.80;45.20
38333;DHT22;25748;46.670;14.272;2023-02-07T09:44:20;-0.50;44.10
38333;DHT22;25748;46.670;14.272;2023-02-07T09:47:04;-0.40;44.10
38333;DHT22;25748;46.670;14.272;2023-02-07T09:54:55;-0.10;43.30
38333;DHT22;25748;46.670;14.272;2023-02-07T09:57:30;0.00;43.20
38333;DHT22;25748;46.670;14.272;2023-02-07T10:00:38;0.00;42.60
38333;DHT22;25748;46.670;14.272;2023-02-07T10:03:21;0.10;42.80
38333;DHT22;25748;46.670;14.272;2023-02-07T10:06:03;0.20;42.70
38333;DHT22;25748;46.670;14.272;2023-02-07T10:08:30;0.20;42.50
38333;DHT22;25748;46.670;14.272;2023-02-07T10:14:40;0.50;42.00
38333;DHT22;25748;46.670;14.272;2023-02-07T10:19:52;0.60;42.30
38333;DHT22;25748;46.670;14.272;2023-02-07T10:30:53;1.00;42.00
38333;DHT22;25748;46.670;14.272;2023-02-07T10:33:22;1.10;41.60
38333;DHT22;25748;46.670;14.272;2023-02-07T10:35:48;1.30;41.60
38333;DHT22;25748;46.670;14.272;2023-02-07T10:38:40;1.40;41.70
38333;DHT22;25748;46.670;14.272;2023-02-07T10:41:16;1.40;41.50
38333;DHT22;25748;46.670;14.272;2023-02-07T10:43:45;1.50;41.20
38333;DHT22;25748;46.670;14.272;2023-02-07T10:46:14;1.70;41.60
38333;DHT22;25748;46.670;14.272;2023-02-07T10:48:40;1.70;40.80
38333;DHT22;25748;46.670;14.272;2023-02-07T10:54:10;2.10;40.90
38333;DHT22;25748;46.670;14.272;2023-02-07T10:56:54;2.20;40.30
38333;DHT22;25748;46.670;14.272;2023-02-07T10:59:40;2.30;40.40
38333;DHT22;25748;46.670;14.272;2023-02-07T11:04:54;2.50;40.00
38333;DHT22;25748;46.670;14.272;2023-02-07T11:07:21;2.60;39.70
38333;DHT22;25748;46.670;14.272;2023-02-07T11:09:48;2.50;39.30
38333;DHT22;25748;46.670;14.272;2023-02-07T11:14:40;2.60;39.40
38333;DHT22;25748;46.670;14.272;2023-02-07T11:17:05;2.80;39.70
38333;DHT22;25748;46.670;14.272;2023-02-07T11:19:31;3.00;39.30
38333;DHT22;25748;46.670;14.272;2023-02-07T11:22:20;3.10;39.00
38333;DHT22;25748;46.670;14.272;2023-02-07T11:24:47;3.00;38.70
38333;DHT22;25748;46.670;14.272;2023-02-07T11:27:17;2.90;38.20
38333;DHT22;25748;46.670;14.272;2023-02-07T11:29:58;3.10;38.70
38333;DHT22;25748;46.670;14.272;2023-02-07T11:32:26;3.00;38.40
38333;DHT22;25748;46.670;14.272;2023-02-07T11:34:53;2.70;38.00
38333;DHT22;25748;46.670;14.272;2023-02-07T11:39:53;2.60;38.10
38333;DHT22;25748;46.670;14.272;2023-02-07T11:42:25;2.80;38.50
38333;DHT22;25748;46.670;14.272;2023-02-07T11:44:54;2.90;39.00
38333;DHT22;25748;46.670;14.272;2023-02-07T11:47:24;3.10;37.90
38333;DHT22;25748;46.670;14.272;2023-02-07T11:49:58;3.20;38.00
38333;DHT22;25748;46.670;14.272;2023-02-07T11:52:25;3.30;38.30
38333;DHT22;25748;46.670;14.272;2023-02-07T11:54:55;3.40;37.80
38333;DHT22;25748;46.670;14.272;2023-02-07T11:57:23;3.50;37.70
38333;DHT22;25748;46.670;14.272;2023-02-07T12:00:03;3.40;37.40
38333;DHT22;25748;46.670;14.272;2023-02-07T12:02:31;3.40;38.10
38333;DHT22;25748;46.670;14.272;2023-02-07T12:05:13;3.50;38.00
38333;DHT22;25748;46.670;14.272;2023-02-07T12:07:50;3.50;37.70
38333;DHT22;25748;46.670;14.272;2023-02-07T12:10:27;3.70;38.10
38333;DHT22;25748;46.670;14.272;2023-02-07T12:13:02;3.70;37.10
38333;DHT22;25748;46.670;14.272;2023-02-07T12:15:33;3.80;36.80
38333;DHT22;25748;46.670;14.272;2023-02-07T12:18:12;3.90;37.20
38333;DHT22;25748;46.670;14.272;2023-02-07T12:20:56;4.10;37.40
38333;DHT22;25748;46.670;14.272;2023-02-07T12:23:38;4.00;36.20
38333;DHT22;25748;46.670;14.272;2023-02-07T12:34:31;4.00;36.30
38333;DHT22;25748;46.670;14.272;2023-02-07T12:45:03;4.40;36.90
38333;DHT22;25748;46.670;14.272;2023-02-07T12:47:38;4.40;36.90
38333;DHT22;25748;46.670;14.272;2023-02-07T12:53:17;4.70;36.40
38333;DHT22;25748;46.670;14.272;2023-02-07T13:01:59;4.50;36.10
38333;DHT22;25748;46.670;14.272;2023-02-07T13:23:17;5.10;36.30
38333;DHT22;25748;46.670;14.272;2023-02-07T13:25:46;5.20;36.20
38333;DHT22;25748;46.670;14.272;2023-02-07T13:31:06;5.20;36.30
38333;DHT22;25748;46.670;14.272;2023-02-07T13:33:35;5.20;36.30
38333;DHT22;25748;46.670;14.272;2023-02-07T13:41:57;5.30;36.30
38333;DHT22;25748;46.670;14.272;2023-02-07T13:47:29;5.10;36.20
38333;DHT22;25748;46.670;14.272;2023-02-07T13:55:40;5.00;36.10
38333;DHT22;25748;46.670;14.272;2023-02-07T14:01:25;4.90;35.80
38333;DHT22;25748;46.670;14.272;2023-02-07T14:04:10;4.90;36.10
38333;DHT22;25748;46.670;14.272;2023-02-07T14:07:13;4.90;36.10
38333;DHT22;25748;46.670;14.272;2023-02-07T14:09:46;4.80;36.10
38333;DHT22;25748;46.670;14.272;2023-02-07T14:12:37;4.80;36.40
38333;DHT22;25748;46.670;14.272;2023-02-07T14:21:36;4.90;36.20
38333;DHT22;25748;46.670;14.272;2023-02-07T14:31:56;4.90;36.40
38333;DHT22;25748;46.670;14.272;2023-02-07T14:34:28;4.90;36.00
38333;DHT22;25748;46.670;14.272;2023-02-07T14:36:54;5.00;35.90
38333;DHT22;25748;46.670;14.272;2023-02-07T14:39:25;5.00;36.10
38333;DHT22;25748;46.670;14.272;2023-02-07T14:42:10;5.00;36.20
38333;DHT22;25748;46.670;14.272;2023-02-07T14:44:38;5.10;36.00
38333;DHT22;25748;46.670;14.272;2023-02-07T14:47:07;5.10;36.00
38333;DHT22;25748;46.670;14.272;2023-02-07T14:49:44;5.00;35.80
38333;DHT22;25748;46.670;14.272;2023-02-07T14:52:13;5.00;35.90
38333;DHT22;25748;46.670;14.272;2023-02-07T15:02:50;4.80;36.10
38333;DHT22;25748;46.670;14.272;2023-02-07T15:05:32;4.80;36.00
38333;DHT22;25748;46.670;14.272;2023-02-07T15:10:32;4.80;36.20
38333;DHT22;25748;46.670;14.272;2023-02-07T15:12:59;4.70;35.90
38333;DHT22;25748;46.670;14.272;2023-02-07T15:15:28;4.60;35.90
38333;DHT22;25748;46.670;14.272;2023-02-07T15:17:57;4.50;36.30
38333;DHT22;25748;46.670;14.272;2023-02-07T15:20:29;4.30;36.30
38333;DHT22;25748;46.670;14.272;2023-02-07T15:22:58;4.10;36.50
38333;DHT22;25748;46.670;14.272;2023-02-07T15:25:24;4.00;36.60
38333;DHT22;25748;46.670;14.272;2023-02-07T15:28:04;3.80;36.60
38333;DHT22;25748;46.670;14.272;2023-02-07T15:30:31;3.70;36.70
38333;DHT22;25748;46.670;14.272;2023-02-07T15:32:57;3.60;36.90
38333;DHT22;25748;46.670;14.272;2023-02-07T15:35:26;3.40;37.00
38333;DHT22;25748;46.670;14.272;2023-02-07T15:37:53;3.20;36.80
38333;DHT22;25748;46.670;14.272;2023-02-07T15:40:22;3.10;36.90
38333;DHT22;25748;46.670;14.272;2023-02-07T15:42:52;3.00;37.10
38333;DHT22;25748;46.670;14.272;2023-02-07T15:45:29;2.80;37.10
38333;DHT22;25748;46.670;14.272;2023-02-07T15:48:00;2.60;37.30
38333;DHT22;25748;46.670;14.272;2023-02-07T15:50:29;2.50;37.50
38333;DHT22;25748;46.670;14.272;2023-02-07T15:52:57;2.40;37.60
38333;DHT22;25748;46.670;14.272;2023-02-07T15:55:30;2.30;37.70
38333;DHT22;25748;46.670;14.272;2023-02-07T15:57:57;2.20;37.70
38333;DHT22;25748;46.670;14.272;2023-02-07T16:00:28;2.10;37.80
38333;DHT22;25748;46.670;14.272;2023-02-07T16:03:18;2.00;37.90
38333;DHT22;25748;46.670;14.272;2023-02-07T16:05:45;1.90;38.20
38333;DHT22;25748;46.670;14.272;2023-02-07T16:08:35;1.80;38.50
38333;DHT22;25748;46.670;14.272;2023-02-07T16:16:20;1.20;39.80
38333;DHT22;25748;46.670;14.272;2023-02-07T16:18:47;0.90;40.10
38333;DHT22;25748;46.670;14.272;2023-02-07T16:23:42;0.50;40.40
38333;DHT22;25748;46.670;14.272;2023-02-07T16:26:09;0.30;40.70
38333;DHT22;25748;46.670;14.272;2023-02-07T16:28:35;0.20;40.90
38333;DHT22;25748;46.670;14.272;2023-02-07T16:31:01;0.10;41.00
38333;DHT22;25748;46.670;14.272;2023-02-07T16:33:26;-0.10;41.10
38333;DHT22;25748;46.670;14.272;2023-02-07T16:35:52;-0.20;41.50
38333;DHT22;25748;46.670;14.272;2023-02-07T16:38:18;-0.40;41.80
38333;DHT22;25748;46.670;14.272;2023-02-07T16:40:43;-0.40;42.00
38333;DHT22;25748;46.670;14.272;2023-02-07T16:43:39;-0.50;42.20
38333;DHT22;25748;46.670;14.272;2023-02-07T16:46:04;-0.60;42.30
38333;DHT22;25748;46.670;14.272;2023-02-07T16:48:30;-0.80;42.60
38333;DHT22;25748;46.670;14.272;2023-02-07T16:50:56;-0.80;42.70
38333;DHT22;25748;46.670;14.272;2023-02-07T16:53:23;-0.90;43.10
38333;DHT22;25748;46.670;14.272;2023-02-07T16:55:51;-1.00;43.30
38333;DHT22;25748;46.670;14.272;2023-02-07T16:58:29;-1.10;43.60
38333;DHT22;25748;46.670;14.272;2023-02-07T17:00:55;-1.20;43.40
38333;DHT22;25748;46.670;14.272;2023-02-07T17:03:21;-1.20;43.50
38333;DHT22;25748;46.670;14.272;2023-02-07T17:05:47;-1.30;43.50
38333;DHT22;25748;46.670;14.272;2023-02-07T17:08:15;-1.40;43.50
38333;DHT22;25748;46.670;14.272;2023-02-07T17:10:46;-1.40;43.60
38333;DHT22;25748;46.670;14.272;2023-02-07T17:13:12;-1.60;43.60
38333;DHT22;25748;46.670;14.272;2023-02-07T17:15:38;-1.60;43.60
38333;DHT22;25748;46.670;14.272;2023-02-07T17:18:04;-1.70;43.70
38333;DHT22;25748;46.670;14.272;2023-02-07T17:20:32;-1.80;43.80
38333;DHT22;25748;46.670;14.272;2023-02-07T17:22:58;-1.90;44.00
38333;DHT22;25748;46.670;14.272;2023-02-07T17:25:27;-2.10;44.10
38333;DHT22;25748;46.670;14.272;2023-02-07T17:27:54;-2.20;44.20
38333;DHT22;25748;46.670;14.272;2023-02-07T17:30:23;-2.20;44.20
38333;DHT22;25748;46.670;14.272;2023-02-07T17:32:49;-2.30;44.30
38333;DHT22;25748;46.670;14.272;2023-02-07T17:35:15;-2.40;44.50
38333;DHT22;25748;46.670;14.272;2023-02-07T17:37:41;-2.50;44.70
38333;DHT22;25748;46.670;14.272;2023-02-07T17:42:48;-2.60;45.00
38333;DHT22;25748;46.670;14.272;2023-02-07T17:45:14;-2.70;45.00
38333;DHT22;25748;46.670;14.272;2023-02-07T17:47:40;-2.80;45.00
38333;DHT22;25748;46.670;14.272;2023-02-07T17:50:09;-2.80;45.00
38333;DHT22;25748;46.670;14.272;2023-02-07T17:52:35;-2.90;45.10
38333;DHT22;25748;46.670;14.272;2023-02-07T17:55:01;-3.00;45.30
38333;DHT22;25748;46.670;14.272;2023-02-07T17:57:26;-3.00;45.30
38333;DHT22;25748;46.670;14.272;2023-02-07T17:59:52;-3.10;45.30
38333;DHT22;25748;46.670;14.272;2023-02-07T18:02:18;-3.20;45.30
38333;DHT22;25748;46.670;14.272;2023-02-07T18:04:43;-3.20;45.30
38333;DHT22;25748;46.670;14.272;2023-02-07T18:07:09;-3.30;45.40
38333;DHT22;25748;46.670;14.272;2023-02-07T18:09:34;-3.40;45.40
38333;DHT22;25748;46.670;14.272;2023-02-07T18:12:00;-3.50;45.60
38333;DHT22;25748;46.670;14.272;2023-02-07T18:14:28;-3.50;45.70
38333;DHT22;25748;46.670;14.272;2023-02-07T18:16:55;-3.60;45.70
38333;DHT22;25748;46.670;14.272;2023-02-07T18:19:20;-3.60;45.80
38333;DHT22;25748;46.670;14.272;2023-02-07T18:21:47;-3.70;46.00
38333;DHT22;25748;46.670;14.272;2023-02-07T18:24:14;-3.70;45.80